createdAt,value
2018-05-13T00:00:41.812Z,12.53
2018-05-13T00:03:14.273Z,12.60
2018-05-13T00:05:44.950Z,13.90
2018-05-13T00:08:16.152Z,14.13
2018-05-13T00:10:46.589Z,13.00
2018-05-13T00:13:17.009Z,11.33
2018-05-13T00:15:46.668Z,11.87
2018-05-13T00:18:17.246Z,14.10
2018-05-13T00:20:47.624Z,14.20
2018-05-13T00:23:19.950Z,12.73
2018-05-13T00:25:50.344Z,13.57
2018-05-13T00:28:21.533Z,12.23
2018-05-13T00:30:52.144Z,11.90
2018-05-13T00:33:22.508Z,15.57
2018-05-13T00:35:52.229Z,11.57
2018-05-13T00:38:21.972Z,13.63
2018-05-13T00:40:52.395Z,11.87
2018-05-13T00:43:23.881Z,15.97
2018-05-13T00:45:53.817Z,10.90
2018-05-13T00:48:24.320Z,12.73
2018-05-13T00:50:54.178Z,11.83
2018-05-13T00:53:24.665Z,11.80
2018-05-13T00:55:56.206Z,16.10
2018-05-13T00:58:26.690Z,19.33
2018-05-13T01:00:57.581Z,11.00
2018-05-13T01:03:29.736Z,14.40
2018-05-13T01:05:59.685Z,12.27
2018-05-13T01:08:30.122Z,10.37
2018-05-13T01:11:01.349Z,11.20
2018-05-13T01:13:31.460Z,12.30
2018-05-13T01:16:02.520Z,13.03
2018-05-13T01:18:32.383Z,10.90
2018-05-13T01:21:02.784Z,13.10
2018-05-13T01:23:33.234Z,13.83
2018-05-13T01:26:05.794Z,13.53
2018-05-13T01:28:37.122Z,12.10
2018-05-13T01:31:07.128Z,13.03
2018-05-13T01:33:37.877Z,10.60
2018-05-13T01:36:08.487Z,15.83
2018-05-13T01:38:38.238Z,18.10
2018-05-13T01:41:09.609Z,15.13
2018-05-13T01:43:40.855Z,19.40
2018-05-13T01:46:11.584Z,12.63
2018-05-13T01:48:41.937Z,16.13
2018-05-13T01:51:14.322Z,12.30
2018-05-13T01:53:44.542Z,13.93
2018-05-13T01:56:15.111Z,12.13
2018-05-13T01:58:45.865Z,18.43
2018-05-13T02:01:16.373Z,9.50
2018-05-13T02:03:47.034Z,13.80
2018-05-13T02:06:17.306Z,9.67
2018-05-13T02:08:47.222Z,11.43
2018-05-13T02:11:19.545Z,10.37
2018-05-13T02:13:50.894Z,9.20
2018-05-13T02:16:22.278Z,11.10
2018-05-13T02:18:52.671Z,10.30
2018-05-13T02:21:23.304Z,8.43
2018-05-13T02:23:52.904Z,12.50
2018-05-13T02:26:23.492Z,9.53
2018-05-13T02:28:54.715Z,11.90
2018-05-13T02:31:25.523Z,10.20
2018-05-13T02:33:56.707Z,13.73
2018-05-13T02:36:26.389Z,8.80
2018-05-13T02:38:57.241Z,9.77
2018-05-13T02:41:27.498Z,9.43
2018-05-13T02:43:58.829Z,11.93
2018-05-13T02:46:29.841Z,11.93
2018-05-13T02:49:00.493Z,9.03
2018-05-13T02:51:31.049Z,10.10
2018-05-13T02:54:02.213Z,9.20
2018-05-13T02:56:32.477Z,15.63
2018-05-13T02:59:02.852Z,16.13
2018-05-13T03:01:34.192Z,10.43
2018-05-13T03:04:06.929Z,10.33
2018-05-13T03:06:38.408Z,11.53
2018-05-13T03:09:10.901Z,13.33
2018-05-13T03:11:44.433Z,10.97
2018-05-13T03:14:14.729Z,19.27
2018-05-13T03:16:45.345Z,13.60
2018-05-13T03:19:16.761Z,11.67
2018-05-13T03:21:47.239Z,18.10
2018-05-13T03:24:17.644Z,15.90
2018-05-13T03:26:50.678Z,13.53
2018-05-13T03:29:23.130Z,13.87
2018-05-13T03:31:54.484Z,13.60
2018-05-13T03:34:25.862Z,14.30
2018-05-13T03:36:56.303Z,16.60
2018-05-13T03:39:26.550Z,16.93
2018-05-13T03:41:56.371Z,13.13
2018-05-13T03:44:26.760Z,18.63
2018-05-13T03:46:57.163Z,16.20
2018-05-13T03:49:27.163Z,13.80
2018-05-13T03:51:58.559Z,18.80
2018-05-13T03:54:28.346Z,16.67
2018-05-13T03:57:00.730Z,22.27
2018-05-13T03:59:30.666Z,12.87
2018-05-13T04:02:01.474Z,15.27
2018-05-13T04:04:33.728Z,13.63
2018-05-13T04:07:04.007Z,19.30
2018-05-13T04:09:45.191Z,11.93
2018-05-13T04:12:27.254Z,15.03
2018-05-13T04:15:08.620Z,17.47
2018-05-13T04:17:41.115Z,14.70
2018-05-13T04:20:13.297Z,18.07
2018-05-13T04:22:47.235Z,12.27
2018-05-13T04:25:17.881Z,12.50
2018-05-13T04:27:47.742Z,12.90
2018-05-13T04:30:18.046Z,11.77
2018-05-13T04:32:50.507Z,15.57
2018-05-13T04:35:22.790Z,17.30
2018-05-13T04:37:55.801Z,12.50
2018-05-13T04:40:28.089Z,16.67
2018-05-13T04:42:58.815Z,14.23
2018-05-13T04:45:31.165Z,26.57
2018-05-13T04:48:03.570Z,18.33
2018-05-13T04:50:35.208Z,19.23
2018-05-13T04:53:05.549Z,19.85
2018-05-13T04:55:38.470Z,18.70
2018-05-13T04:58:09.020Z,20.07
2018-05-13T05:00:39.484Z,17.90
2018-05-13T05:03:10.315Z,14.20
2018-05-13T05:05:42.512Z,18.27
2018-05-13T05:08:13.208Z,17.60
2018-05-13T05:10:43.508Z,16.23
2018-05-13T05:13:14.068Z,16.60
2018-05-13T05:15:44.610Z,20.63
2018-05-13T05:18:15.241Z,18.87
2018-05-13T05:20:46.449Z,20.63
2018-05-13T05:23:16.784Z,20.93
2018-05-13T05:25:49.132Z,22.17
2018-05-13T05:28:19.521Z,19.63
2018-05-13T05:30:50.880Z,23.03
2018-05-13T05:33:20.756Z,21.73
2018-05-13T05:35:53.353Z,24.93
2018-05-13T05:38:26.598Z,23.53
2018-05-13T05:40:56.694Z,23.97
2018-05-13T05:43:27.250Z,30.80
2018-05-13T05:46:01.871Z,25.90
2018-05-13T05:48:32.313Z,33.17
2018-05-13T05:51:02.742Z,32.80
2018-05-13T05:53:34.490Z,32.90
2018-05-13T05:56:06.850Z,32.77
2018-05-13T05:58:37.400Z,32.20
2018-05-13T06:01:09.813Z,28.87
2018-05-13T06:03:41.686Z,29.43
2018-05-13T06:06:11.457Z,29.73
2018-05-13T06:08:42.027Z,29.90
2018-05-13T06:11:13.055Z,27.90
2018-05-13T06:13:44.216Z,38.23
2018-05-13T06:16:14.299Z,37.30
2018-05-13T06:18:46.807Z,37.63
2018-05-13T06:21:16.572Z,31.83
2018-05-13T06:23:49.375Z,38.70
2018-05-13T06:26:20.289Z,39.47
2018-05-13T06:28:52.810Z,43.67
2018-05-13T06:31:26.582Z,36.70
2018-05-13T06:33:58.610Z,41.13
2018-05-13T06:36:30.903Z,39.43
2018-05-13T06:39:00.636Z,38.97
2018-05-13T06:41:31.394Z,36.43
2018-05-13T06:44:01.351Z,43.93
2018-05-13T06:46:30.731Z,34.20
2018-05-13T07:17:10.840Z,44.03
2018-05-13T07:19:44.509Z,40.50
2018-05-13T07:22:14.459Z,41.33
2018-05-13T07:24:44.153Z,42.73
2018-05-13T07:27:14.694Z,54.10
2018-05-13T07:29:45.802Z,49.43
2018-05-13T07:32:16.069Z,53.20
2018-05-13T07:34:46.595Z,49.63
2018-05-13T07:37:16.846Z,46.40
2018-05-13T07:39:47.533Z,48.63
2018-05-13T07:42:17.852Z,54.37
2018-05-13T07:44:47.762Z,48.63
2018-05-13T07:47:22.867Z,51.70
2018-05-13T07:49:54.688Z,62.20
2018-05-13T07:52:26.539Z,54.53
2018-05-13T07:54:59.728Z,50.63
2018-05-13T07:57:31.522Z,58.57
2018-05-13T08:00:01.681Z,54.97
2018-05-13T08:02:32.090Z,67.00
2018-05-13T08:05:01.803Z,65.67
2018-05-13T08:07:33.484Z,65.47
2018-05-13T08:10:06.927Z,69.57
2018-05-13T08:12:39.176Z,68.30
2018-05-13T08:15:09.557Z,70.60
2018-05-13T08:17:39.486Z,68.97
2018-05-13T08:20:11.485Z,71.63
2018-05-13T08:22:41.694Z,73.55
2018-05-13T08:25:13.698Z,73.75
2018-05-13T08:27:44.700Z,79.65
2018-05-13T08:30:15.593Z,93.40
2018-05-13T08:32:46.180Z,82.80
2018-05-13T08:35:16.367Z,82.20
2018-05-13T08:37:49.095Z,97.28
2018-05-13T08:40:19.529Z,97.97
2018-05-13T08:42:49.819Z,100.47
2018-05-13T08:45:19.878Z,102.25
2018-05-13T08:47:52.037Z,95.25
2018-05-13T08:50:21.974Z,92.85
2018-05-13T08:52:52.249Z,94.00
2018-05-13T08:55:22.190Z,96.65
2018-05-13T08:57:52.071Z,100.55
2018-05-13T09:00:22.156Z,102.65
2018-05-13T09:02:52.386Z,104.25
2018-05-13T09:05:22.928Z,94.65
2018-05-13T09:07:54.722Z,110.53
2018-05-13T09:10:25.120Z,111.37
2018-05-13T09:12:55.284Z,116.45
2018-05-13T09:15:25.842Z,104.45
2018-05-13T09:17:56.055Z,114.30
2018-05-13T09:20:26.310Z,116.28
2018-05-13T09:22:57.105Z,110.18
2018-05-13T09:25:27.371Z,103.80
2018-05-13T09:27:58.189Z,99.10
2018-05-13T09:30:31.119Z,104.63
2018-05-13T09:33:00.857Z,106.82
2018-05-13T09:35:30.759Z,113.30
2018-05-13T09:38:01.320Z,109.57
2018-05-13T09:40:32.552Z,107.90
2018-05-13T09:43:04.672Z,110.80
2018-05-13T09:45:34.922Z,113.93
2018-05-13T09:48:05.392Z,109.20
2018-05-13T09:50:45.235Z,100.00
2018-05-13T09:53:16.072Z,109.75
2018-05-13T09:55:45.824Z,107.32
2018-05-13T09:58:15.604Z,112.70
2018-05-13T10:00:45.490Z,105.25
2018-05-13T10:03:23.191Z,106.85
2018-05-13T10:16:05.271Z,108.35
2018-05-13T10:18:36.294Z,95.47
2018-05-13T10:21:05.919Z,96.30
2018-05-13T10:23:37.597Z,89.90
2018-05-13T10:26:07.005Z,95.82
2018-05-13T10:28:38.202Z,88.00
2018-05-13T10:31:08.213Z,94.32
2018-05-13T10:33:38.594Z,86.12
2018-05-13T10:36:10.501Z,80.00
2018-05-13T10:38:40.276Z,99.15
2018-05-13T10:41:11.168Z,99.20
2018-05-13T10:43:42.949Z,97.03
2018-05-13T10:46:15.947Z,102.45
2018-05-13T10:48:45.914Z,95.28
2018-05-13T10:51:15.528Z,102.12
2018-05-13T10:53:54.705Z,102.32
2018-05-13T10:56:32.254Z,95.80
2018-05-13T10:59:02.491Z,98.00
2018-05-13T11:01:31.800Z,92.97
2018-05-13T11:04:09.429Z,95.97
2018-05-13T11:06:46.994Z,100.57
2018-05-13T11:09:17.891Z,99.60
2018-05-13T11:11:49.951Z,98.82
2018-05-13T11:14:19.773Z,88.97
2018-05-13T11:16:50.282Z,99.82
2018-05-13T11:19:21.259Z,92.43
2018-05-13T11:21:50.783Z,92.90
2018-05-13T11:24:28.314Z,97.70
2018-05-13T11:27:05.898Z,95.00
2018-05-13T11:29:38.630Z,90.82
2018-05-13T11:32:09.856Z,88.22
2018-05-13T11:34:39.185Z,81.05
2018-05-13T11:37:10.099Z,81.85
2018-05-13T11:39:42.261Z,78.35
2018-05-13T11:42:12.188Z,86.22
2018-05-13T11:44:48.438Z,82.22
2018-05-13T11:47:20.521Z,81.15
2018-05-13T11:49:52.719Z,74.05
2018-05-13T11:52:25.354Z,71.97
2018-05-13T11:54:54.978Z,73.97
2018-05-13T11:57:26.921Z,67.00
2018-05-13T11:59:56.940Z,65.30
2018-05-13T12:02:29.586Z,59.90
2018-05-13T12:04:59.556Z,59.17
2018-05-13T12:07:37.454Z,70.05
2018-05-13T12:10:16.720Z,60.50
2018-05-13T12:12:45.779Z,57.83
2018-05-13T12:15:28.801Z,58.25
2018-05-13T12:18:07.586Z,56.05
2018-05-13T12:20:43.775Z,57.65
2018-05-13T12:23:27.201Z,56.53
2018-05-13T12:26:04.546Z,62.38
2018-05-13T12:28:40.140Z,51.53
2018-05-13T12:31:10.260Z,57.00
2018-05-13T12:33:41.423Z,56.15
2018-05-13T12:36:21.758Z,63.80
2018-05-13T12:39:04.336Z,61.03
2018-05-13T12:41:35.419Z,58.00
2018-05-13T12:44:05.387Z,54.35
2018-05-13T12:46:35.496Z,58.55
2018-05-13T12:49:05.115Z,62.92
2018-05-13T12:51:34.911Z,65.07
2018-05-13T12:54:07.826Z,57.15
2018-05-13T12:56:38.159Z,67.10
2018-05-13T12:59:08.450Z,53.95
2018-05-13T13:01:40.737Z,66.55
2018-05-13T13:04:12.834Z,58.58
2018-05-13T13:06:43.282Z,61.63
2018-05-13T13:09:13.273Z,64.75
2018-05-13T13:11:43.567Z,72.55
2018-05-13T13:14:13.129Z,67.37
2018-05-13T13:16:45.002Z,67.43
2018-05-13T13:19:15.480Z,68.95
2018-05-13T13:21:46.533Z,68.32
2018-05-13T13:24:17.683Z,72.30
2018-05-13T13:26:47.432Z,68.30
2018-05-13T13:29:20.498Z,74.25
2018-05-13T13:31:50.711Z,66.70
2018-05-13T13:34:20.640Z,69.28
2018-05-13T13:36:50.263Z,68.25
2018-05-13T13:39:21.056Z,68.90
2018-05-13T13:41:50.947Z,72.85
2018-05-13T13:44:20.661Z,77.35
2018-05-13T13:46:51.880Z,72.07
2018-05-13T13:49:22.194Z,72.47
2018-05-13T13:51:53.742Z,72.32
2018-05-13T13:54:24.623Z,70.35
2018-05-13T13:56:54.213Z,76.60
2018-05-13T13:59:26.175Z,84.93
2018-05-13T14:01:59.002Z,76.87
2018-05-13T14:04:31.075Z,81.37
2018-05-13T14:07:03.140Z,78.28
2018-05-13T14:09:33.476Z,72.97
2018-05-13T14:12:06.468Z,71.20
2018-05-13T14:14:39.236Z,80.72
2018-05-13T14:17:11.427Z,72.82
2018-05-13T14:19:41.296Z,81.53
2018-05-13T14:22:11.437Z,79.25
2018-05-13T14:24:42.175Z,96.50
2018-05-13T14:27:12.472Z,86.43
2018-05-13T14:29:42.287Z,80.45
2018-05-13T14:32:12.841Z,70.43
2018-05-13T14:34:43.243Z,72.50
2018-05-13T14:37:16.184Z,72.72
2018-05-13T14:39:45.932Z,67.75
2018-05-13T14:42:16.039Z,72.80
2018-05-13T14:44:45.702Z,70.35
2018-05-13T14:47:17.682Z,62.33
2018-05-13T14:49:48.726Z,64.80
2018-05-13T14:52:18.426Z,72.37
2018-05-13T14:54:52.020Z,67.22
2018-05-13T14:57:22.236Z,67.82
2018-05-13T14:59:55.553Z,73.22
2018-05-13T15:02:26.287Z,66.37
2018-05-13T15:04:58.649Z,78.67
2018-05-13T15:07:32.730Z,75.37
2018-05-13T15:10:04.974Z,62.95
2018-05-13T15:12:35.424Z,63.75
2018-05-13T15:15:07.513Z,73.12
2018-05-13T15:17:40.554Z,69.10
2018-05-13T15:20:11.347Z,69.85
2018-05-13T15:22:41.955Z,70.87
2018-05-13T15:25:11.695Z,61.20
2018-05-13T15:27:43.249Z,65.90
2018-05-13T15:30:15.191Z,62.72
2018-05-13T15:32:46.026Z,62.15
2018-05-13T15:35:16.623Z,64.62
2018-05-13T15:37:46.287Z,62.80
2018-05-13T15:40:15.929Z,55.03
2018-05-13T15:42:47.965Z,61.93
2018-05-13T15:45:18.927Z,57.20
2018-05-13T15:47:49.052Z,57.67
2018-05-13T15:50:20.290Z,55.90
2018-05-13T15:52:52.250Z,58.53
2018-05-13T15:55:24.469Z,47.13
2018-05-13T15:57:54.794Z,54.03
2018-05-13T16:00:26.551Z,51.40
2018-05-13T16:02:57.282Z,54.07
2018-05-13T16:05:30.004Z,48.22
2018-05-13T16:08:00.799Z,47.25
2018-05-13T16:10:32.440Z,49.08
2018-05-13T16:13:03.935Z,51.33
2018-05-13T16:15:33.839Z,41.60
2018-05-13T16:18:03.853Z,40.90
2018-05-13T16:20:36.505Z,51.05
2018-05-13T16:23:07.783Z,42.62
2018-05-13T16:25:39.726Z,50.58
2018-05-13T16:28:12.782Z,42.78
2018-05-13T16:30:43.060Z,47.05
2018-05-13T16:33:15.107Z,49.60
2018-05-13T16:35:45.330Z,49.72
2018-05-13T16:38:18.331Z,49.35
2018-05-13T16:40:51.164Z,53.15
2018-05-13T16:43:21.983Z,56.85
2018-05-13T16:45:51.917Z,47.00
2018-05-13T16:48:22.028Z,56.72
2018-05-13T16:50:54.776Z,54.08
2018-05-13T16:53:27.862Z,53.85
2018-05-13T16:55:57.576Z,62.05
2018-05-13T16:58:27.374Z,58.92
2018-05-13T17:01:01.151Z,53.03
2018-05-13T17:03:31.377Z,54.60
2018-05-13T17:06:04.382Z,61.50
2018-05-13T17:08:34.646Z,70.30
2018-05-13T17:11:06.877Z,62.58
2018-05-13T17:13:39.570Z,56.67
2018-05-13T17:16:11.410Z,64.03
2018-05-13T17:18:42.483Z,67.72
2018-05-13T17:21:15.295Z,61.50
2018-05-13T17:23:45.438Z,72.93
2018-05-13T17:26:17.473Z,75.80
2018-05-13T17:28:48.807Z,87.18
2018-05-13T17:31:19.078Z,86.55
2018-05-13T17:33:52.291Z,83.37
2018-05-13T17:36:26.436Z,81.40
2018-05-13T17:38:56.827Z,88.25
2018-05-13T17:41:27.222Z,79.55
2018-05-13T17:43:57.609Z,79.50
2018-05-13T17:46:27.692Z,74.93
2018-05-13T17:48:58.455Z,67.07
2018-05-13T17:51:28.174Z,77.90
2018-05-13T17:53:58.023Z,68.12
2018-05-13T17:56:28.530Z,72.55
2018-05-13T17:58:58.686Z,75.20
2018-05-13T18:01:31.867Z,73.35
2018-05-13T18:04:01.585Z,75.68
2018-05-13T18:06:32.253Z,73.45
2018-05-13T18:09:02.719Z,75.15
2018-05-13T18:11:33.624Z,79.93
2018-05-13T18:14:05.428Z,71.53
2018-05-13T18:16:35.270Z,87.85
2018-05-13T18:19:06.475Z,77.90
2018-05-13T18:21:39.679Z,70.18
2018-05-13T18:24:10.346Z,79.28
2018-05-13T18:26:40.734Z,86.43
2018-05-13T18:29:10.466Z,73.45
2018-05-13T18:31:42.138Z,68.10
2018-05-13T18:34:14.207Z,71.97
2018-05-13T18:36:44.376Z,59.33
2018-05-13T18:39:14.869Z,59.00
2018-05-13T18:41:44.896Z,60.45
2018-05-13T18:44:17.704Z,66.78
2018-05-13T18:46:48.123Z,69.53
2018-05-13T18:49:17.876Z,72.72
2018-05-13T18:51:48.680Z,70.65
2018-05-13T18:54:20.614Z,70.60
2018-05-13T18:56:52.534Z,64.50
2018-05-13T18:59:23.647Z,76.03
2018-05-13T19:01:53.435Z,60.03
2018-05-13T19:04:23.734Z,75.00
2018-05-13T19:06:55.852Z,60.45
2018-05-13T19:09:27.548Z,65.62
2018-05-13T19:11:57.806Z,61.80
2018-05-13T19:14:27.638Z,60.75
2018-05-13T19:16:59.970Z,63.87
2018-05-13T19:19:31.767Z,65.07
2018-05-13T19:22:01.471Z,72.55
2018-05-13T19:24:33.550Z,69.07
2018-05-13T19:27:05.997Z,69.25
2018-05-13T19:29:36.784Z,61.30
2018-05-13T19:32:08.396Z,68.18
2018-05-13T19:34:38.945Z,62.00
2018-05-13T19:37:09.325Z,69.82
2018-05-13T19:39:41.440Z,64.70
2018-05-13T19:42:14.288Z,63.83
2018-05-13T19:44:44.517Z,70.00
2018-05-13T19:47:16.107Z,64.32
2018-05-13T19:49:47.024Z,63.35
2018-05-13T19:52:18.467Z,58.42
2018-05-13T19:54:50.470Z,69.93
2018-05-13T19:57:20.811Z,61.80
2018-05-13T19:59:52.896Z,69.03
2018-05-13T20:02:23.233Z,56.03
2018-05-13T20:04:53.702Z,57.10
2018-05-13T20:07:26.593Z,57.45
2018-05-13T20:09:58.155Z,59.10
2018-05-13T20:12:31.545Z,59.28
2018-05-13T20:15:04.445Z,60.30
2018-05-13T20:17:36.699Z,56.45
2018-05-13T20:20:07.833Z,50.25
2018-05-13T20:22:58.503Z,52.00
2018-05-13T20:25:28.252Z,53.35
2018-05-13T20:27:58.994Z,53.40
2018-05-13T20:30:28.756Z,58.72
2018-05-13T20:32:58.495Z,53.92
2018-05-13T20:35:30.599Z,56.05
2018-05-13T20:38:02.399Z,54.85
2018-05-13T20:40:32.128Z,57.25
2018-05-13T20:43:04.367Z,58.70
2018-05-13T20:45:34.139Z,68.57
2018-05-13T20:48:03.961Z,61.60
2018-05-13T20:50:35.747Z,57.97
2018-05-13T20:53:05.339Z,50.85
2018-05-13T20:55:35.915Z,59.70
2018-05-13T20:58:06.385Z,61.75
2018-05-13T21:00:36.683Z,60.00
2018-05-13T21:03:07.163Z,59.63
2018-05-13T21:05:37.341Z,61.10
2018-05-13T21:08:09.141Z,62.00
2018-05-13T21:10:38.825Z,66.03
2018-05-13T21:13:08.566Z,64.95
2018-05-13T21:15:40.771Z,59.00
2018-05-13T21:18:12.997Z,62.67
2018-05-13T21:20:43.577Z,67.80
2018-05-13T21:23:14.606Z,73.47
2018-05-13T21:25:45.691Z,77.62
2018-05-13T21:28:16.617Z,63.25
2018-05-13T21:30:46.941Z,64.72
2018-05-13T21:33:19.023Z,69.90
2018-05-13T21:35:50.993Z,57.22
2018-05-13T21:38:23.009Z,69.05
2018-05-13T21:40:55.871Z,67.22
2018-05-13T21:43:25.635Z,74.40
2018-05-13T21:45:55.646Z,63.30
2018-05-13T21:48:25.375Z,69.62
2018-05-13T21:50:55.180Z,75.37
2018-05-13T21:53:25.491Z,78.72
2018-05-13T21:55:57.251Z,83.75
2018-05-13T21:58:27.018Z,87.03
2018-05-13T22:00:59.286Z,71.50
2018-05-13T22:03:30.937Z,74.93
2018-05-13T22:06:01.800Z,71.12
2018-05-13T22:08:33.910Z,83.35
2018-05-13T22:11:04.340Z,93.35
2018-05-13T22:13:35.201Z,95.07
2018-05-13T22:16:07.255Z,92.88
2018-05-13T22:18:36.984Z,80.12
2018-05-13T22:21:06.780Z,78.85
2018-05-13T22:23:39.185Z,86.40
2018-05-13T22:26:11.946Z,80.80
2018-05-13T22:28:42.800Z,95.47
2018-05-13T22:31:13.359Z,85.30
2018-05-13T22:33:43.759Z,87.93
2018-05-13T22:36:14.346Z,95.20
2018-05-13T22:38:44.058Z,84.53
2018-05-13T22:41:13.783Z,89.05
2018-05-13T22:43:43.650Z,107.07
2018-05-13T22:46:15.760Z,84.22
2018-05-13T22:48:47.568Z,96.95
2018-05-13T22:51:19.093Z,94.25
2018-05-13T22:53:51.696Z,92.12
2018-05-13T22:56:22.024Z,96.60
2018-05-13T22:58:53.831Z,91.82
2018-05-13T23:01:26.223Z,122.30
2018-05-13T23:03:57.971Z,114.50
2018-05-13T23:06:32.850Z,106.85
2018-05-13T23:09:02.527Z,110.12
2018-05-13T23:11:34.966Z,119.55
2018-05-13T23:14:04.915Z,117.00
2018-05-13T23:16:36.357Z,123.85
2018-05-13T23:19:06.051Z,134.15
2018-05-13T23:21:37.666Z,132.32
2018-05-13T23:24:09.571Z,135.65
2018-05-13T23:26:41.224Z,108.05
2018-05-13T23:29:13.055Z,137.65
2018-05-13T23:31:43.047Z,127.47
2018-05-13T23:34:15.031Z,136.37
2018-05-13T23:36:47.051Z,138.27
2018-05-13T23:39:19.673Z,137.75
2018-05-13T23:41:51.905Z,147.87
2018-05-13T23:44:25.167Z,153.10
2018-05-13T23:46:55.466Z,146.62
2018-05-13T23:49:26.378Z,138.00
2018-05-13T23:51:57.304Z,150.85
2018-05-13T23:54:29.869Z,140.57
2018-05-13T23:57:02.697Z,154.80
2018-05-13T23:59:32.922Z,163.35
